Terminal Aerodrome Forecast
Issued by NWS

Current Version | Previous Version | Text Only | Print | Product List | Glossary Off
Versions: 1 2 3 4 5 6 7 8 9 10 11 12 13 14 15 16 17

000
FTUS41 KILN 300900 AAA
TAFLUK
TAF AMD
KLUK 300915Z 3009/3106 00000KT 5SM BR SKC
      TEMPO 3009/3012 2SM BR
     FM301200 19008KT P6SM SCT060
     FM302000 21010G16KT P6SM SCT050
     FM302100 21010G17KT P6SM VCTS SCT040CB
     FM302300 21006KT P6SM VCSH SCT025 OVC120
      TEMPO 3023/3102 4SM -TSRA BR BKN025CB
     FM310200 17007KT 5SM -SHRA SCT020 OVC080=

USA.gov is the U.S. government's official web portal to all federal, state and local government web resources and services.